Terminal Aerodrome Forecast
Issued by NWS

Home | Current Version | Previous Version | Text Only | Print | Product List | Glossary Off
Versions: 1 2 3 4 5 6 7 8 9 10 11 12 13 14 15 16 17 18 19 20 21

414
FTUS43 KABR 232139 AAA
TAFPIR
TAF AMD
KPIR 232139Z 2322/2418 10011KT P6SM SCT200
     FM240200 01012KT P6SM VCSH OVC025
     FM241500 36012G19KT P6SM OVC015=

USA.gov is the U.S. government's official web portal to all federal, state and local government web resources and services.